Time,TemperatureF,DewpointF,PressureIn,WindDirection,WindDirectionDegrees,WindSpeedMPH,WindSpeedGustMPH,Humidity,HourlyPrecipIn,Conditions,Clouds,dailyrainin,SoftwareType,DateUTC
2013-02-15 00:01:00,35.4,32.5,28.97,SSW,203,0.8,2.7,89,-99.99,,,-99.99,WSDL version 420,2013-02-15 05:01:00,
2013-02-15 00:08:00,35.4,32.3,28.97,SSW,203,0.0,2.7,88,-99.99,,,-99.99,WSDL version 420,2013-02-15 05:08:00,
2013-02-15 00:12:00,35.4,32.2,28.97,SSW,203,0.3,1.3,88,-99.99,,,-99.99,WSDL version 420,2013-02-15 05:12:00,
2013-02-15 00:14:00,35.4,32.2,28.97,SSW,203,0.0,1.3,88,-99.99,,,-99.99,WSDL version 420,2013-02-15 05:14:00,
2013-02-15 00:23:00,35.4,32.2,28.97,SW,221,0.4,2.5,88,-99.99,,,-99.99,WSDL version 420,2013-02-15 05:23:00,
2013-02-15 00:29:00,35.4,32.2,28.97,SW,225,0.0,2.5,88,-99.99,,,-99.99,WSDL version 420,2013-02-15 05:29:00,
2013-02-15 00:35:00,35.4,32.2,-100.00,SW,225,0.6,2.0,88,-99.99,,,-99.99,WSDL version 420,2013-02-15 05:35:00,
2013-02-15 00:42:00,35.5,32.1,28.97,SSW,203,0.0,2.0,87,-99.99,,,-99.99,WSDL version 420,2013-02-15 05:42:00,
2013-02-15 00:48:00,35.6,32.2,-100.00,WSW,248,0.6,3.4,88,-99.99,,,-99.99,WSDL version 420,2013-02-15 05:48:00,
2013-02-15 00:53:00,35.8,32.5,28.97,WSW,239,1.1,2.5,88,-99.99,,,-99.99,WSDL version 420,2013-02-15 05:53:00,
2013-02-15 01:01:00,35.8,32.3,28.97,SW,225,0.1,1.6,87,-99.99,,,-99.99,WSDL version 420,2013-02-15 06:01:00,
2013-02-15 01:06:00,35.8,32.2,28.97,WSW,244,1.9,3.8,87,-99.99,,,-99.99,WSDL version 420,2013-02-15 06:06:00,
2013-02-15 01:12:00,35.9,32.6,28.97,WSW,248,1.4,3.8,88,-99.99,,,-99.99,WSDL version 420,2013-02-15 06:12:00,
2013-02-15 01:18:00,36.0,32.7,28.97,WSW,248,0.2,2.7,88,-99.99,,,-99.99,WSDL version 420,2013-02-15 06:18:00,
2013-02-15 01:24:00,36.0,32.7,28.97,SW,231,1.8,3.1,88,-99.99,,,-99.99,WSDL version 420,2013-02-15 06:24:00,
2013-02-15 01:31:00,36.1,32.9,28.97,SSW,203,1.2,3.1,88,-99.99,,,-99.99,WSDL version 420,2013-02-15 06:31:00,
2013-02-15 01:37:00,36.1,32.9,28.97,WSW,248,1.1,2.7,88,-99.99,,,-99.99,WSDL version 420,2013-02-15 06:37:00,
2013-02-15 01:44:00,36.0,32.4,-100.00,WSW,248,0.9,3.1,87,-99.99,,,-99.99,WSDL version 420,2013-02-15 06:44:00,
2013-02-15 01:50:00,35.8,32.1,28.97,WSW,248,0.0,3.1,86,-99.99,,,-99.99,WSDL version 420,2013-02-15 06:50:00,
2013-02-15 01:56:00,35.8,31.9,28.97,WSW,248,0.0,1.3,86,-99.99,,,-99.99,WSDL version 420,2013-02-15 06:56:00,
2013-02-15 02:02:00,35.8,31.9,28.97,WSW,248,0.0,0.0,86,-99.99,,,-99.99,WSDL version 420,2013-02-15 07:02:00,
2013-02-15 02:08:00,35.8,31.9,28.97,WSW,248,1.1,2.2,86,-99.99,,,-99.99,WSDL version 420,2013-02-15 07:08:00,
2013-02-15 02:14:00,35.7,31.8,28.97,WSW,248,0.0,2.2,86,-99.99,,,-99.99,WSDL version 420,2013-02-15 07:14:00,
2013-02-15 02:20:00,35.6,31.7,28.97,WSW,248,0.0,1.1,86,-99.99,,,-99.99,WSDL version 420,2013-02-15 07:20:00,
2013-02-15 02:27:00,35.8,31.9,-100.00,SW,225,0.0,1.3,86,-99.99,,,-99.99,WSDL version 420,2013-02-15 07:27:00,
2013-02-15 02:37:00,36.0,32.1,28.97,SSW,203,0.4,2.9,86,-99.99,,,-99.99,WSDL version 420,2013-02-15 07:37:00,
2013-02-15 02:43:00,36.1,32.2,28.94,SW,225,0.0,1.6,86,-99.99,,,-99.99,WSDL version 420,2013-02-15 07:43:00,
2013-02-15 02:49:00,36.1,32.2,28.94,SW,225,0.0,1.1,86,-99.99,,,-99.99,WSDL version 420,2013-02-15 07:49:00,
2013-02-15 02:55:00,35.8,31.7,28.94,SW,225,0.0,1.1,84,-99.99,,,-99.99,WSDL version 420,2013-02-15 07:55:00,
2013-02-15 03:02:00,35.4,31.2,28.97,SW,225,0.0,0.0,84,-99.99,,,-99.99,WSDL version 420,2013-02-15 08:02:00,
2013-02-15 03:16:00,34.5,30.0,28.97,SW,225,0.0,0.0,83,-99.99,,,-99.99,WSDL version 420,2013-02-15 08:16:00,
2013-02-15 03:22:00,34.5,30.1,28.97,SW,225,0.0,0.0,84,-99.99,,,-99.99,WSDL version 420,2013-02-15 08:22:00,
2013-02-15 03:28:00,34.4,30.2,28.94,SW,225,0.0,0.0,84,-99.99,,,-99.99,WSDL version 420,2013-02-15 08:28:00,
2013-02-15 03:34:00,34.3,30.1,28.94,SW,225,0.0,1.3,84,-99.99,,,-99.99,WSDL version 420,2013-02-15 08:34:00,
2013-02-15 03:40:00,34.5,30.6,28.94,SW,225,0.0,1.3,86,-99.99,,,-99.99,WSDL version 420,2013-02-15 08:40:00,
2013-02-15 03:46:00,34.5,30.6,28.97,SW,225,0.0,0.0,86,-99.99,,,-99.99,WSDL version 420,2013-02-15 08:46:00,
2013-02-15 03:52:00,34.5,30.6,28.97,SW,225,0.0,0.0,86,-99.99,,,-99.99,WSDL version 420,2013-02-15 08:52:00,
2013-02-15 03:59:00,34.5,30.6,28.94,SW,225,0.0,0.0,86,-99.99,,,-99.99,WSDL version 420,2013-02-15 08:59:00,
2013-02-15 04:15:00,35.2,31.7,28.97,WNW,289,2.3,3.6,87,-99.99,,,-99.99,WSDL version 420,2013-02-15 09:15:00,
2013-02-15 04:24:00,36.1,30.6,28.97,NW,315,2.3,4.3,80,-99.99,,,-99.99,WSDL version 420,2013-02-15 09:24:00,
2013-02-15 04:34:00,36.3,28.8,28.97,SE,135,2.0,4.7,74,-99.99,,,-99.99,WSDL version 420,2013-02-15 09:34:00,
2013-02-15 04:40:00,36.4,28.6,28.97,West,263,1.2,4.7,73,-99.99,,,-99.99,WSDL version 420,2013-02-15 09:40:00,
2013-02-15 04:47:00,36.3,27.1,28.97,West,266,2.0,2.9,69,-99.99,,,-99.99,WSDL version 420,2013-02-15 09:47:00,
2013-02-15 04:57:00,36.1,25.9,28.97,West,266,1.2,4.7,66,-99.99,,,-99.99,WSDL version 420,2013-02-15 09:57:00,
2013-02-15 05:06:00,35.8,24.8,29.00,South,191,1.2,4.0,64,-99.99,,,-99.99,WSDL version 420,2013-02-15 10:06:00,
2013-02-15 05:12:00,35.6,24.7,29.00,WSW,240,1.3,4.0,64,-99.99,,,-99.99,WSDL version 420,2013-02-15 10:12:00,
2013-02-15 05:18:00,35.6,24.3,28.97,WSW,248,0.6,2.7,63,-99.99,,,-99.99,WSDL version 420,2013-02-15 10:18:00,
2013-02-15 05:26:00,35.6,24.3,28.97,WSW,248,0.8,2.7,63,-99.99,,,-99.99,WSDL version 420,2013-02-15 10:26:00,
2013-02-15 05:34:00,35.8,24.0,29.00,WSW,248,1.0,2.5,62,-99.99,,,-99.99,WSDL version 420,2013-02-15 10:34:00,
2013-02-15 05:40:00,35.8,24.1,29.00,WSW,248,1.3,2.2,62,-99.99,,,-99.99,WSDL version 420,2013-02-15 10:40:00,
2013-02-15 05:47:00,35.8,24.0,29.00,WSW,248,0.0,2.0,62,-99.99,,,-99.99,WSDL version 420,2013-02-15 10:47:00,
2013-02-15 05:53:00,35.8,24.0,29.00,WSW,248,0.0,2.2,62,-99.99,,,-99.99,WSDL version 420,2013-02-15 10:53:00,
2013-02-15 05:58:00,35.8,24.0,29.00,WSW,248,0.4,2.2,62,-99.99,,,-99.99,WSDL version 420,2013-02-15 10:58:00,
2013-02-15 06:04:00,35.8,24.0,29.00,WNW,290,0.5,2.0,62,-99.99,,,-99.99,WSDL version 420,2013-02-15 11:04:00,
2013-02-15 06:12:00,35.8,23.9,29.00,WNW,284,2.1,3.6,61,-99.99,,,-99.99,WSDL version 420,2013-02-15 11:12:00,
2013-02-15 06:18:00,36.0,23.8,29.00,NW,321,1.3,3.6,61,-99.99,,,-99.99,WSDL version 420,2013-02-15 11:18:00,
2013-02-15 06:27:00,35.8,23.5,29.00,NW,319,1.1,3.4,60,-99.99,,,-99.99,WSDL version 420,2013-02-15 11:27:00,
2013-02-15 06:33:00,35.7,22.8,29.03,NW,311,2.5,4.3,57,-99.99,,,-99.99,WSDL version 420,2013-02-15 11:33:00,
2013-02-15 06:39:00,35.6,20.6,29.03,West,273,2.7,4.7,53,-99.99,,,-99.99,WSDL version 420,2013-02-15 11:39:00,
2013-02-15 06:44:00,35.4,19.1,29.03,West,279,3.4,4.9,51,-99.99,,,-99.99,WSDL version 420,2013-02-15 11:44:00,
2013-02-15 06:50:00,35.4,19.2,29.03,WSW,241,3.4,4.9,51,-99.99,,,-99.99,WSDL version 420,2013-02-15 11:50:00,
2013-02-15 06:55:00,35.4,19.1,29.03,WSW,251,2.8,5.6,51,-99.99,,,-99.99,WSDL version 420,2013-02-15 11:55:00,
2013-02-15 07:01:00,35.5,18.5,29.03,WNW,286,3.6,11.0,49,-99.99,,,-99.99,WSDL version 420,2013-02-15 12:01:00,
2013-02-15 07:09:00,35.6,18.6,29.03,WSW,248,2.5,5.4,50,-99.99,,,-99.99,WSDL version 420,2013-02-15 12:09:00,
2013-02-15 07:15:00,35.6,18.6,29.06,WSW,242,1.9,8.1,50,-99.99,,,-99.99,WSDL version 420,2013-02-15 12:15:00,
2013-02-15 07:20:00,35.6,18.1,-100.00,West,270,3.4,8.1,48,-99.99,,,-99.99,WSDL version 420,2013-02-15 12:20:00,
2013-02-15 07:31:00,35.6,18.8,29.03,WSW,248,2.2,3.8,50,-99.99,,,-99.99,WSDL version 420,2013-02-15 12:31:00,
2013-02-15 07:38:00,35.8,19.0,29.03,WSW,252,2.1,4.0,50,-99.99,,,-99.99,WSDL version 420,2013-02-15 12:38:00,
2013-02-15 07:44:00,35.8,18.7,29.03,SW,233,2.8,7.4,49,-99.99,,,-99.99,WSDL version 420,2013-02-15 12:44:00,
2013-02-15 07:50:00,36.1,18.1,29.03,NW,308,2.2,7.4,48,-99.99,,,-99.99,WSDL version 420,2013-02-15 12:50:00,
2013-02-15 07:56:00,36.2,17.9,29.03,SW,231,2.0,5.8,47,-99.99,,,-99.99,WSDL version 420,2013-02-15 12:56:00,
2013-02-15 08:03:00,36.5,18.2,29.03,WSW,255,2.2,4.9,47,-99.99,,,-99.99,WSDL version 420,2013-02-15 13:03:00,
2013-02-15 08:09:00,36.5,18.0,-100.00,SSW,212,2.0,5.6,46,-99.99,,,-99.99,WSDL version 420,2013-02-15 13:09:00,
2013-02-15 08:15:00,36.5,18.1,29.06,NW,308,2.7,6.7,47,-99.99,,,-99.99,WSDL version 420,2013-02-15 13:15:00,
2013-02-15 08:20:00,36.3,18.0,29.06,West,264,1.9,6.7,47,-99.99,,,-99.99,WSDL version 420,2013-02-15 13:20:00,
2013-02-15 08:26:00,36.5,17.9,29.06,WSW,248,2.5,3.8,46,-99.99,,,-99.99,WSDL version 420,2013-02-15 13:26:00,
2013-02-15 08:37:00,36.7,17.9,29.09,WSW,248,1.9,4.7,46,-99.99,,,-99.99,WSDL version 420,2013-02-15 13:37:00,
2013-02-15 08:43:00,36.7,18.1,29.09,SW,225,2.3,4.7,46,-99.99,,,-99.99,WSDL version 420,2013-02-15 13:43:00,
2013-02-15 08:49:00,36.7,17.3,29.09,West,270,2.8,4.3,45,-99.99,,,-99.99,WSDL version 420,2013-02-15 13:49:00,
2013-02-15 08:55:00,36.9,17.5,-100.00,West,266,3.3,6.0,45,-99.99,,,-99.99,WSDL version 420,2013-02-15 13:55:00,
2013-02-15 09:00:00,36.9,17.8,-100.00,SSW,210,2.2,6.3,46,-99.99,,,-99.99,WSDL version 420,2013-02-15 14:00:00,
2013-02-15 09:06:00,36.9,17.5,29.09,WSW,244,2.5,6.3,45,-99.99,,,-99.99,WSDL version 420,2013-02-15 14:06:00,
2013-02-15 09:12:00,37.0,17.7,29.09,WSW,244,2.6,5.6,45,-99.99,,,-99.99,WSDL version 420,2013-02-15 14:12:00,
2013-02-15 09:18:00,37.3,17.6,29.09,WSW,248,2.5,4.0,44,-99.99,,,-99.99,WSDL version 420,2013-02-15 14:18:00,
2013-02-15 09:24:00,37.4,17.6,29.09,WSW,248,2.5,2.7,44,-99.99,,,-99.99,WSDL version 420,2013-02-15 14:24:00,
2013-02-15 09:30:00,37.4,17.5,29.09,WSW,248,2.5,2.5,44,-99.99,,,-99.99,WSDL version 420,2013-02-15 14:30:00,
2013-02-15 09:36:00,37.6,17.6,29.09,NW,320,2.0,2.5,44,-99.99,,,-99.99,WSDL version 420,2013-02-15 14:36:00,
2013-02-15 09:42:00,37.7,17.9,29.09,West,281,2.5,4.0,45,-99.99,,,-99.99,WSDL version 420,2013-02-15 14:42:00,
2013-02-15 09:53:00,37.9,18.0,-100.00,NW,308,2.1,8.5,44,-99.99,,,-99.99,WSDL version 420,2013-02-15 14:53:00,
2013-02-15 09:58:00,38.1,17.6,29.06,West,259,2.9,8.5,43,-99.99,,,-99.99,WSDL version 420,2013-02-15 14:58:00,
2013-02-15 10:04:00,38.2,17.9,29.06,WNW,289,4.0,6.5,44,-99.99,,,-99.99,WSDL version 420,2013-02-15 15:04:00,
2013-02-15 10:11:00,38.5,18.5,-100.00,SW,236,2.2,5.8,44,-99.99,,,-99.99,WSDL version 420,2013-02-15 15:11:00,
2013-02-15 10:17:00,38.7,18.3,29.06,WNW,297,2.9,5.8,43,-99.99,,,-99.99,WSDL version 420,2013-02-15 15:17:00,
2013-02-15 10:23:00,39.1,18.7,-100.00,WSW,248,3.0,5.8,43,-99.99,,,-99.99,WSDL version 420,2013-02-15 15:23:00,
2013-02-15 10:29:00,39.2,18.5,29.09,WSW,254,3.2,5.8,43,-99.99,,,-99.99,WSDL version 420,2013-02-15 15:29:00,
2013-02-15 10:35:00,39.4,18.3,-100.00,NW,312,2.6,5.6,43,-99.99,,,-99.99,WSDL version 420,2013-02-15 15:35:00,
2013-02-15 10:40:00,39.4,18.2,29.09,WNW,293,2.9,8.1,42,-99.99,,,-99.99,WSDL version 420,2013-02-15 15:40:00,
2013-02-15 10:46:00,39.4,18.5,29.09,WNW,284,2.2,8.1,43,-99.99,,,-99.99,WSDL version 420,2013-02-15 15:46:00,
2013-02-15 10:52:00,39.7,19.1,29.09,West,276,1.3,4.3,43,-99.99,,,-99.99,WSDL version 420,2013-02-15 15:52:00,
2013-02-15 10:58:00,40.0,19.3,29.09,NW,315,2.6,4.0,43,-99.99,,,-99.99,WSDL version 420,2013-02-15 15:58:00,
2013-02-15 11:03:00,40.3,19.6,29.09,WNW,300,1.6,4.0,43,-99.99,,,-99.99,WSDL version 420,2013-02-15 16:03:00,
2013-02-15 11:09:00,40.4,19.1,29.09,WSW,251,3.6,4.3,42,-99.99,,,-99.99,WSDL version 420,2013-02-15 16:09:00,
2013-02-15 11:15:00,41.0,19.7,29.12,SSW,211,2.5,5.8,42,-99.99,,,-99.99,WSDL version 420,2013-02-15 16:15:00,
2013-02-15 11:21:00,41.7,20.0,29.12,WNW,296,2.8,8.1,41,-99.99,,,-99.99,WSDL version 420,2013-02-15 16:21:00,
2013-02-15 11:27:00,41.5,19.5,29.12,West,270,2.8,8.1,41,-99.99,,,-99.99,WSDL version 420,2013-02-15 16:27:00,
2013-02-15 11:33:00,40.6,18.8,-100.00,WSW,248,2.3,6.5,41,-99.99,,,-99.99,WSDL version 420,2013-02-15 16:33:00,
2013-02-15 11:39:00,40.5,18.7,29.12,WNW,289,2.2,6.5,41,-99.99,,,-99.99,WSDL version 420,2013-02-15 16:39:00,
2013-02-15 11:45:00,41.3,19.5,29.09,WSW,252,3.0,4.3,41,-99.99,,,-99.99,WSDL version 420,2013-02-15 16:45:00,
2013-02-15 11:50:00,41.5,19.6,29.09,NW,304,2.5,5.6,41,-99.99,,,-99.99,WSDL version 420,2013-02-15 16:50:00,
2013-02-15 11:57:00,41.9,19.5,29.09,West,276,2.6,6.3,40,-99.99,,,-99.99,WSDL version 420,2013-02-15 16:57:00,
2013-02-15 12:02:00,41.6,19.1,-100.00,West,264,1.9,6.3,40,-99.99,,,-99.99,WSDL version 420,2013-02-15 17:02:00,
2013-02-15 12:11:00,41.2,18.7,29.09,WNW,285,2.1,3.8,40,-99.99,,,-99.99,WSDL version 420,2013-02-15 17:11:00,
2013-02-15 12:18:00,40.8,18.8,-100.00,WSW,257,2.0,3.8,41,-99.99,,,-99.99,WSDL version 420,2013-02-15 17:18:00,
2013-02-15 12:23:00,40.5,18.6,-100.00,NW,315,2.3,3.6,41,-99.99,,,-99.99,WSDL version 420,2013-02-15 17:23:00,
2013-02-15 12:29:00,40.3,18.5,29.09,WNW,296,2.0,3.4,41,-99.99,,,-99.99,WSDL version 420,2013-02-15 17:29:00,
2013-02-15 12:35:00,40.6,18.8,29.09,NW,308,2.8,5.4,41,-99.99,,,-99.99,WSDL version 420,2013-02-15 17:35:00,
2013-02-15 12:41:00,40.7,19.2,29.09,WNW,293,2.9,5.4,41,-99.99,,,-99.99,WSDL version 420,2013-02-15 17:41:00,
2013-02-15 12:47:00,40.6,19.3,29.09,North,351,3.0,4.7,42,-99.99,,,-99.99,WSDL version 420,2013-02-15 17:47:00,
2013-02-15 12:52:00,40.5,19.2,29.09,NNW,329,3.1,6.5,42,-99.99,,,-99.99,WSDL version 420,2013-02-15 17:52:00,
2013-02-15 12:58:00,40.5,19.2,29.09,NNW,343,2.7,6.3,42,-99.99,,,-99.99,WSDL version 420,2013-02-15 17:58:00,
2013-02-15 13:03:00,40.3,19.6,-100.00,NW,323,3.1,6.3,43,-99.99,,,-99.99,WSDL version 420,2013-02-15 18:03:00,
2013-02-15 13:09:00,40.4,19.6,29.09,NNW,328,3.5,4.3,43,-99.99,,,-99.99,WSDL version 420,2013-02-15 18:09:00,
2013-02-15 13:15:00,43.0,22.0,29.09,WNW,284,2.0,4.3,43,-99.99,,,-99.99,WSDL version 420,2013-02-15 18:15:00,
2013-02-15 13:21:00,43.8,22.3,29.09,West,270,1.1,4.3,42,-99.99,,,-99.99,WSDL version 420,2013-02-15 18:21:00,
2013-02-15 13:27:00,46.2,23.8,29.09,NW,315,3.2,6.3,40,-99.99,,,-99.99,WSDL version 420,2013-02-15 18:27:00,
2013-02-15 13:33:00,45.1,21.6,29.09,NNW,338,2.1,6.3,39,-99.99,,,-99.99,WSDL version 420,2013-02-15 18:33:00,
2013-02-15 13:43:00,45.1,21.1,29.12,NW,308,3.2,4.9,38,-99.99,,,-99.99,WSDL version 420,2013-02-15 18:43:00,
2013-02-15 13:49:00,45.2,21.1,29.12,WNW,296,2.4,4.0,38,-99.99,,,-99.99,WSDL version 420,2013-02-15 18:49:00,
2013-02-15 13:55:00,44.2,20.7,29.12,North,360,2.7,4.3,39,-99.99,,,-99.99,WSDL version 420,2013-02-15 18:55:00,
2013-02-15 14:01:00,43.0,19.8,29.12,NW,307,2.6,4.3,39,-99.99,,,-99.99,WSDL version 420,2013-02-15 19:01:00,
2013-02-15 14:07:00,41.5,18.4,29.12,WNW,300,1.8,5.8,39,-99.99,,,-99.99,WSDL version 420,2013-02-15 19:07:00,
2013-02-15 14:19:00,40.5,18.6,29.12,NNW,338,1.8,4.3,41,-99.99,,,-99.99,WSDL version 420,2013-02-15 19:19:00,
2013-02-15 14:25:00,40.1,18.3,29.12,NW,309,3.1,5.4,41,-99.99,,,-99.99,WSDL version 420,2013-02-15 19:25:00,
2013-02-15 14:32:00,39.6,17.8,29.12,NW,315,1.8,5.4,41,-99.99,,,-99.99,WSDL version 420,2013-02-15 19:32:00,
2013-02-15 14:38:00,39.7,18.0,29.12,West,281,1.7,4.3,41,-99.99,,,-99.99,WSDL version 420,2013-02-15 19:38:00,
2013-02-15 14:43:00,39.6,17.8,29.12,NW,321,2.1,4.3,41,-99.99,,,-99.99,WSDL version 420,2013-02-15 19:43:00,
2013-02-15 14:49:00,39.3,17.6,29.12,NW,315,2.3,3.6,41,-99.99,,,-99.99,WSDL version 420,2013-02-15 19:49:00,
2013-02-15 14:55:00,39.2,17.7,29.12,NW,326,2.5,4.0,42,-99.99,,,-99.99,WSDL version 420,2013-02-15 19:55:00,
2013-02-15 15:01:00,39.1,17.9,29.12,NW,309,2.9,4.7,42,-99.99,,,-99.99,WSDL version 420,2013-02-15 20:01:00,
2013-02-15 15:09:00,38.8,18.2,29.12,NW,315,1.9,4.7,43,-99.99,,,-99.99,WSDL version 420,2013-02-15 20:09:00,
2013-02-15 15:15:00,38.6,18.0,29.12,NW,323,2.3,3.6,43,-99.99,,,-99.99,WSDL version 420,2013-02-15 20:15:00,
2013-02-15 15:21:00,38.5,17.9,29.12,NNW,334,2.1,3.6,43,-99.99,,,-99.99,WSDL version 420,2013-02-15 20:21:00,
2013-02-15 15:26:00,38.7,18.6,29.12,NNW,331,2.3,3.8,44,-99.99,,,-99.99,WSDL version 420,2013-02-15 20:26:00,
2013-02-15 15:32:00,38.8,18.7,29.12,North,356,1.9,4.3,44,-99.99,,,-99.99,WSDL version 420,2013-02-15 20:32:00,
2013-02-15 15:40:00,38.8,18.8,29.12,NW,320,1.9,4.3,44,-99.99,,,-99.99,WSDL version 420,2013-02-15 20:40:00,
2013-02-15 15:46:00,38.6,18.6,29.12,North,351,2.9,5.6,44,-99.99,,,-99.99,WSDL version 420,2013-02-15 20:46:00,
2013-02-15 15:53:00,38.3,18.8,-100.00,NNW,342,3.0,5.6,45,-99.99,,,-99.99,WSDL version 420,2013-02-15 20:53:00,
2013-02-15 15:59:00,38.0,18.0,29.12,NW,324,4.4,5.4,44,-99.99,,,-99.99,WSDL version 420,2013-02-15 20:59:00,
2013-02-15 16:04:00,37.4,18.0,29.12,NW,323,3.6,5.6,45,-99.99,,,-99.99,WSDL version 420,2013-02-15 21:04:00,
2013-02-15 16:11:00,37.6,18.3,29.12,NW,315,2.3,5.6,45,-99.99,,,-99.99,WSDL version 420,2013-02-15 21:11:00,
2013-02-15 16:16:00,37.4,18.5,29.12,NNW,341,2.9,4.7,46,-99.99,,,-99.99,WSDL version 420,2013-02-15 21:16:00,
2013-02-15 16:22:00,37.2,18.8,29.12,NW,323,2.5,5.4,47,-99.99,,,-99.99,WSDL version 420,2013-02-15 21:22:00,
2013-02-15 16:27:00,37.0,18.7,29.12,North,356,2.2,4.3,47,-99.99,,,-99.99,WSDL version 420,2013-02-15 21:27:00,
2013-02-15 16:33:00,36.9,18.3,29.15,NW,315,3.5,6.0,46,-99.99,,,-99.99,WSDL version 420,2013-02-15 21:33:00,
2013-02-15 16:42:00,36.4,18.1,-100.00,NNW,330,2.3,4.9,47,-99.99,,,-99.99,WSDL version 420,2013-02-15 21:42:00,
2013-02-15 16:47:00,36.1,17.9,29.15,NNW,342,2.1,4.9,47,-99.99,,,-99.99,WSDL version 420,2013-02-15 21:47:00,
2013-02-15 16:53:00,36.1,18.3,29.15,NW,315,2.1,4.3,48,-99.99,,,-99.99,WSDL version 420,2013-02-15 21:53:00,
2013-02-15 16:59:00,35.8,18.0,29.15,WNW,300,2.2,4.3,48,-99.99,,,-99.99,WSDL version 420,2013-02-15 21:59:00,
2013-02-15 17:05:00,35.6,17.8,29.15,North,349,2.0,3.4,48,-99.99,,,-99.99,WSDL version 420,2013-02-15 22:05:00,
2013-02-15 17:15:00,35.2,17.3,29.15,NW,325,2.5,4.3,47,-99.99,,,-99.99,WSDL version 420,2013-02-15 22:15:00,
2013-02-15 17:21:00,35.2,17.0,29.15,NW,315,2.4,4.3,47,-99.99,,,-99.99,WSDL version 420,2013-02-15 22:21:00,
2013-02-15 17:27:00,35.1,16.4,29.15,NW,326,2.8,5.6,46,-99.99,,,-99.99,WSDL version 420,2013-02-15 22:27:00,
2013-02-15 17:32:00,34.9,16.2,29.15,NW,315,3.5,7.4,46,-99.99,,,-99.99,WSDL version 420,2013-02-15 22:32:00,
2013-02-15 17:38:00,34.9,15.7,29.15,NW,315,2.5,7.4,45,-99.99,,,-99.99,WSDL version 420,2013-02-15 22:38:00,
2013-02-15 17:44:00,34.7,15.8,29.15,NW,315,2.1,4.3,45,-99.99,,,-99.99,WSDL version 420,2013-02-15 22:44:00,
2013-02-15 17:50:00,34.5,15.9,29.15,NW,321,2.4,4.0,46,-99.99,,,-99.99,WSDL version 420,2013-02-15 22:50:00,
2013-02-15 17:56:00,34.5,15.8,29.15,WNW,293,1.2,4.0,46,-99.99,,,-99.99,WSDL version 420,2013-02-15 22:56:00,
2013-02-15 18:02:00,34.3,15.7,29.15,NW,315,1.1,2.5,46,-99.99,,,-99.99,WSDL version 420,2013-02-15 23:02:00,
2013-02-15 18:07:00,34.2,15.5,29.15,North,360,0.8,3.1,46,-99.99,,,-99.99,WSDL version 420,2013-02-15 23:07:00,
2013-02-15 18:13:00,34.1,15.5,29.15,North,8,1.3,3.1,46,-99.99,,,-99.99,WSDL version 420,2013-02-15 23:13:00,
2013-02-15 18:19:00,34.0,15.4,-100.00,NW,306,0.8,3.1,46,-99.99,,,-99.99,WSDL version 420,2013-02-15 23:19:00,
2013-02-15 18:24:00,34.0,15.4,29.15,NW,321,1.2,2.2,46,-99.99,,,-99.99,WSDL version 420,2013-02-15 23:24:00,
2013-02-15 18:30:00,34.0,15.4,29.15,NW,320,1.7,3.8,46,-99.99,,,-99.99,WSDL version 420,2013-02-15 23:30:00,
2013-02-15 18:36:00,33.8,15.2,29.15,NNW,343,2.2,4.3,46,-99.99,,,-99.99,WSDL version 420,2013-02-15 23:36:00,
2013-02-15 18:42:00,33.7,14.9,29.15,NW,320,2.9,4.7,45,-99.99,,,-99.99,WSDL version 420,2013-02-15 23:42:00,
2013-02-15 18:48:00,33.6,15.0,29.12,NW,324,2.4,4.3,46,-99.99,,,-99.99,WSDL version 420,2013-02-15 23:48:00,
2013-02-15 18:54:00,33.5,14.7,29.12,WNW,302,1.1,3.1,46,-99.99,,,-99.99,WSDL version 420,2013-02-15 23:54:00,
2013-02-15 19:00:00,33.3,14.3,29.12,WNW,302,1.8,3.8,45,-99.99,,,-99.99,WSDL version 420,2013-02-16 00:00:00,
2013-02-15 19:09:00,33.1,14.6,29.12,NNW,331,1.8,4.0,46,-99.99,,,-99.99,WSDL version 420,2013-02-16 00:09:00,
2013-02-15 19:16:00,33.1,14.6,29.15,NW,326,1.2,3.8,46,-99.99,,,-99.99,WSDL version 420,2013-02-16 00:16:00,
2013-02-15 19:22:00,33.0,14.5,29.15,NW,315,1.4,2.7,46,-99.99,,,-99.99,WSDL version 420,2013-02-16 00:22:00,
2013-02-15 19:28:00,32.8,14.3,29.18,NW,323,1.0,2.7,46,-99.99,,,-99.99,WSDL version 420,2013-02-16 00:28:00,
2013-02-15 19:34:00,32.7,13.9,29.18,NW,319,1.6,2.7,45,-99.99,,,-99.99,WSDL version 420,2013-02-16 00:34:00,
2013-02-15 19:43:00,32.2,13.7,29.18,NNW,333,2.1,2.9,46,-99.99,,,-99.99,WSDL version 420,2013-02-16 00:43:00,
2013-02-15 19:49:00,32.1,14.5,29.18,NW,326,1.2,4.0,46,-99.99,,,-99.99,WSDL version 420,2013-02-16 00:49:00,
2013-02-15 19:55:00,31.6,15.3,29.18,NW,311,1.7,3.6,46,-99.99,,,-99.99,WSDL version 420,2013-02-16 00:55:00,
2013-02-15 20:01:00,31.4,15.0,29.18,NW,315,2.3,3.6,46,-99.99,,,-99.99,WSDL version 420,2013-02-16 01:01:00,
2013-02-15 20:07:00,31.1,14.8,29.18,NW,315,1.0,3.4,46,-99.99,,,-99.99,WSDL version 420,2013-02-16 01:07:00,
2013-02-15 20:13:00,30.8,14.5,29.18,West,281,1.7,3.4,46,-99.99,,,-99.99,WSDL version 420,2013-02-16 01:13:00,
2013-02-15 20:18:00,30.4,14.1,29.18,WNW,302,1.4,4.0,46,-99.99,,,-99.99,WSDL version 420,2013-02-16 01:18:00,
2013-02-15 20:24:00,30.2,14.3,29.18,NW,315,1.4,2.7,47,-99.99,,,-99.99,WSDL version 420,2013-02-16 01:24:00,
2013-02-15 20:29:00,30.1,14.3,29.21,NW,315,1.4,3.1,47,-99.99,,,-99.99,WSDL version 420,2013-02-16 01:29:00,
2013-02-15 20:35:00,29.9,14.1,29.21,NW,305,1.3,3.1,47,-99.99,,,-99.99,WSDL version 420,2013-02-16 01:35:00,
2013-02-15 20:43:00,29.5,13.7,29.21,NW,315,1.6,2.7,47,-99.99,,,-99.99,WSDL version 420,2013-02-16 01:43:00,
2013-02-15 20:49:00,29.4,14.0,-100.00,NW,315,0.4,2.7,48,-99.99,,,-99.99,WSDL version 420,2013-02-16 01:49:00,
2013-02-15 20:54:00,29.3,13.9,29.21,NW,315,1.5,4.0,48,-99.99,,,-99.99,WSDL version 420,2013-02-16 01:54:00,
2013-02-15 21:00:00,29.1,13.8,29.21,NW,315,1.4,4.0,48,-99.99,,,-99.99,WSDL version 420,2013-02-16 02:00:00,
2013-02-15 21:05:00,28.9,13.6,29.21,NW,315,1.2,3.4,48,-99.99,,,-99.99,WSDL version 420,2013-02-16 02:05:00,
2013-02-15 21:11:00,28.9,13.7,29.21,NW,311,1.6,2.7,49,-99.99,,,-99.99,WSDL version 420,2013-02-16 02:11:00,
2013-02-15 21:17:00,28.8,13.8,29.21,NW,324,1.3,2.5,49,-99.99,,,-99.99,WSDL version 420,2013-02-16 02:17:00,
2013-02-15 21:24:00,28.6,13.7,29.21,NW,315,0.7,2.5,49,-99.99,,,-99.99,WSDL version 420,2013-02-16 02:24:00,
2013-02-15 21:31:00,28.4,13.9,29.18,NW,315,0.4,1.6,50,-99.99,,,-99.99,WSDL version 420,2013-02-16 02:31:00,
2013-02-15 21:38:00,27.9,13.4,29.18,NNW,338,0.0,1.6,50,-99.99,,,-99.99,WSDL version 420,2013-02-16 02:38:00,
2013-02-15 21:47:00,27.7,13.2,29.18,NW,315,0.0,2.0,50,-99.99,,,-99.99,WSDL version 420,2013-02-16 02:47:00,
2013-02-15 21:54:00,27.4,13.2,29.18,NW,315,0.0,2.0,51,-99.99,,,-99.99,WSDL version 420,2013-02-16 02:54:00,
2013-02-15 22:05:00,27.0,13.0,29.21,NW,323,0.4,2.0,51,-99.99,,,-99.99,WSDL version 420,2013-02-16 03:05:00,
2013-02-15 22:11:00,27.0,13.0,29.21,NNW,338,0.2,2.0,51,-99.99,,,-99.99,WSDL version 420,2013-02-16 03:11:00,
2013-02-15 22:17:00,27.0,13.0,29.21,NNW,338,0.0,1.3,51,-99.99,,,-99.99,WSDL version 420,2013-02-16 03:17:00,
2013-02-15 22:22:00,26.8,12.8,29.21,NNW,338,0.0,1.3,51,-99.99,,,-99.99,WSDL version 420,2013-02-16 03:22:00,
2013-02-15 22:28:00,26.8,13.2,29.21,NNW,338,0.3,1.3,52,-99.99,,,-99.99,WSDL version 420,2013-02-16 03:28:00,
2013-02-15 22:34:00,26.8,13.2,29.21,NNW,338,0.0,1.6,52,-99.99,,,-99.99,WSDL version 420,2013-02-16 03:34:00,
2013-02-15 22:40:00,26.8,13.2,29.21,NNW,338,0.0,1.6,52,-99.99,,,-99.99,WSDL version 420,2013-02-16 03:40:00,
2013-02-15 22:46:00,26.8,13.2,29.21,NNW,338,0.0,2.0,52,-99.99,,,-99.99,WSDL version 420,2013-02-16 03:46:00,
2013-02-15 22:52:00,27.1,13.6,29.21,NNW,340,1.8,3.4,53,-99.99,,,-99.99,WSDL version 420,2013-02-16 03:52:00,
2013-02-15 22:58:00,27.6,15.2,29.21,North,357,2.9,4.5,56,-99.99,,,-99.99,WSDL version 420,2013-02-16 03:58:00,
2013-02-15 23:03:00,27.9,15.7,29.21,NNW,331,3.0,5.6,56,-99.99,,,-99.99,WSDL version 420,2013-02-16 04:03:00,
2013-02-15 23:09:00,27.9,15.7,29.21,NNW,343,2.7,3.8,56,-99.99,,,-99.99,WSDL version 420,2013-02-16 04:09:00,
2013-02-15 23:15:00,27.9,15.5,29.21,North,360,3.3,6.3,55,-99.99,,,-99.99,WSDL version 420,2013-02-16 04:15:00,
2013-02-15 23:21:00,27.7,15.2,29.21,NNW,345,2.2,6.3,55,-99.99,,,-99.99,WSDL version 420,2013-02-16 04:21:00,
2013-02-15 23:27:00,27.6,15.1,29.21,NNW,335,2.3,4.9,55,-99.99,,,-99.99,WSDL version 420,2013-02-16 04:27:00,
2013-02-15 23:33:00,27.5,15.0,29.21,NNW,334,2.7,4.7,55,-99.99,,,-99.99,WSDL version 420,2013-02-16 04:33:00,
2013-02-15 23:40:00,27.5,15.0,29.21,NNW,347,2.5,4.7,55,-99.99,,,-99.99,WSDL version 420,2013-02-16 04:40:00,
2013-02-15 23:50:00,27.1,14.3,29.21,NNW,338,2.2,5.8,54,-99.99,,,-99.99,WSDL version 420,2013-02-16 04:50:00,
2013-02-15 23:56:00,27.1,14.3,29.21,North,5,1.6,3.8,54,-99.99,,,-99.99,WSDL version 420,2013-02-16 04:56:00,